sensor_id;sensor_type;location;lat;lon;timestamp;temperature;humidity
17968;DHT22;9109;48.050;11.696;2023-07-29T03:46:43;17.00;99.90
17968;DHT22;9109;48.050;11.696;2023-07-29T03:50:04;17.00;99.90
17968;DHT22;9109;48.050;11.696;2023-07-29T03:53:06;17.00;99.90
17968;DHT22;9109;48.050;11.696;2023-07-29T03:56:12;17.00;99.90
17968;DHT22;9109;48.050;11.696;2023-07-29T03:59:14;17.10;99.90
17968;DHT22;9109;48.050;11.696;2023-07-29T04:02:19;17.10;99.90
17968;DHT22;9109;48.050;11.696;2023-07-29T04:05:24;17.10;99.90
17968;DHT22;9109;48.050;11.696;2023-07-29T04:08:31;17.10;99.90
17968;DHT22;9109;48.050;11.696;2023-07-29T04:11:34;17.10;99.90
17968;DHT22;9109;48.050;11.696;2023-07-29T04:14:38;17.10;99.90
17968;DHT22;9109;48.050;11.696;2023-07-29T04:17:42;17.10;99.90
17968;DHT22;9109;48.050;11.696;2023-07-29T04:20:46;17.20;99.90
17968;DHT22;9109;48.050;11.696;2023-07-29T04:23:50;17.10;99.90
17968;DHT22;9109;48.050;11.696;2023-07-29T04:26:54;17.10;99.90
17968;DHT22;9109;48.050;11.696;2023-07-29T04:29:59;17.20;99.90
17968;DHT22;9109;48.050;11.696;2023-07-29T04:33:15;17.20;99.90
17968;DHT22;9109;48.050;11.696;2023-07-29T04:36:53;17.30;99.90
17968;DHT22;9109;48.050;11.696;2023-07-29T04:40:20;17.20;99.90
17968;DHT22;9109;48.050;11.696;2023-07-29T04:47:13;17.40;99.90
17968;DHT22;9109;48.050;11.696;2023-07-29T04:50:42;17.50;99.90
17968;DHT22;9109;48.050;11.696;2023-07-29T04:54:06;17.50;99.90
17968;DHT22;9109;48.050;11.696;2023-07-29T04:57:41;17.50;99.90
17968;DHT22;9109;48.050;11.696;2023-07-29T05:01:00;17.50;99.90
17968;DHT22;9109;48.050;11.696;2023-07-29T05:04:36;17.50;99.90
17968;DHT22;9109;48.050;11.696;2023-07-29T05:08:09;17.50;99.90
17968;DHT22;9109;48.050;11.696;2023-07-29T05:11:20;17.50;99.90
17968;DHT22;9109;48.050;11.696;2023-07-29T05:14:41;17.60;99.90
17968;DHT22;9109;48.050;11.696;2023-07-29T05:18:03;17.60;99.90
17968;DHT22;9109;48.050;11.696;2023-07-29T05:21:10;17.60;99.90
17968;DHT22;9109;48.050;11.696;2023-07-29T05:24:39;17.70;99.90
17968;DHT22;9109;48.050;11.696;2023-07-29T05:28:01;17.80;99.90
17968;DHT22;9109;48.050;11.696;2023-07-29T05:31:54;17.90;99.90
17968;DHT22;9109;48.050;11.696;2023-07-29T05:40:20;18.00;99.90
17968;DHT22;9109;48.050;11.696;2023-07-29T05:47:11;18.30;99.90
17968;DHT22;9109;48.050;11.696;2023-07-29T06:02:01;18.50;99.90
17968;DHT22;9109;48.050;11.696;2023-07-29T06:05:50;18.60;99.90
17968;DHT22;9109;48.050;11.696;2023-07-29T06:09:24;18.60;99.90
17968;DHT22;9109;48.050;11.696;2023-07-29T06:16:56;18.50;99.90
17968;DHT22;9109;48.050;11.696;2023-07-29T06:21:10;18.40;99.90
17968;DHT22;9109;48.050;11.696;2023-07-29T06:24:20;18.40;99.90
17968;DHT22;9109;48.050;11.696;2023-07-29T06:27:51;18.30;99.90
17968;DHT22;9109;48.050;11.696;2023-07-29T06:31:00;18.40;99.90
17968;DHT22;9109;48.050;11.696;2023-07-29T06:34:02;18.30;99.90
17968;DHT22;9109;48.050;11.696;2023-07-29T06:37:25;18.30;99.90
17968;DHT22;9109;48.050;11.696;2023-07-29T06:40:59;18.30;99.90
17968;DHT22;9109;48.050;11.696;2023-07-29T06:44:05;18.30;99.90
17968;DHT22;9109;48.050;11.696;2023-07-29T06:47:29;18.30;99.90
17968;DHT22;9109;48.050;11.696;2023-07-29T06:50:45;18.40;99.90
17968;DHT22;9109;48.050;11.696;2023-07-29T06:54:00;18.50;99.90
17968;DHT22;9109;48.050;11.696;2023-07-29T06:57:44;18.50;99.90
17968;DHT22;9109;48.050;11.696;2023-07-29T07:01:08;18.50;99.90
17968;DHT22;9109;48.050;11.696;2023-07-29T07:04:48;18.40;99.90
17968;DHT22;9109;48.050;11.696;2023-07-29T07:08:17;18.30;99.90
17968;DHT22;9109;48.050;11.696;2023-07-29T07:15:31;18.30;99.90
17968;DHT22;9109;48.050;11.696;2023-07-29T07:19:29;18.20;99.90
17968;DHT22;9109;48.050;11.696;2023-07-29T07:22:39;18.20;99.90
17968;DHT22;9109;48.050;11.696;2023-07-29T07:26:09;18.20;99.90
17968;DHT22;9109;48.050;11.696;2023-07-29T07:29:44;18.20;99.90
17968;DHT22;9109;48.050;11.696;2023-07-29T07:33:09;18.30;99.90
17968;DHT22;9109;48.050;11.696;2023-07-29T07:36:19;18.50;99.90
17968;DHT22;9109;48.050;11.696;2023-07-29T07:39:38;18.60;99.90
17968;DHT22;9109;48.050;11.696;2023-07-29T07:42:52;18.60;99.90
17968;DHT22;9109;48.050;11.696;2023-07-29T07:46:11;18.70;99.90
17968;DHT22;9109;48.050;11.696;2023-07-29T07:49:35;18.70;99.90
17968;DHT22;9109;48.050;11.696;2023-07-29T07:56:19;18.70;99.90
17968;DHT22;9109;48.050;11.696;2023-07-29T07:59:21;18.70;99.90
17968;DHT22;9109;48.050;11.696;2023-07-29T08:02:26;18.80;99.90
17968;DHT22;9109;48.050;11.696;2023-07-29T08:08:30;18.70;99.90
17968;DHT22;9109;48.050;11.696;2023-07-29T08:11:32;18.70;99.90
17968;DHT22;9109;48.050;11.696;2023-07-29T08:14:37;18.70;99.90
17968;DHT22;9109;48.050;11.696;2023-07-29T08:17:41;18.80;99.90
17968;DHT22;9109;48.050;11.696;2023-07-29T08:20:52;18.80;99.90
17968;DHT22;9109;48.050;11.696;2023-07-29T08:23:54;18.90;99.90
17968;DHT22;9109;48.050;11.696;2023-07-29T08:26:56;18.90;99.90
17968;DHT22;9109;48.050;11.696;2023-07-29T08:29:58;19.00;99.90
17968;DHT22;9109;48.050;11.696;2023-07-29T08:33:02;19.10;99.90
17968;DHT22;9109;48.050;11.696;2023-07-29T08:36:06;19.10;99.90
17968;DHT22;9109;48.050;11.696;2023-07-29T08:39:08;19.20;99.90
17968;DHT22;9109;48.050;11.696;2023-07-29T08:42:11;19.30;99.90
17968;DHT22;9109;48.050;11.696;2023-07-29T08:45:17;19.40;99.90
17968;DHT22;9109;48.050;11.696;2023-07-29T08:48:39;19.50;99.90
17968;DHT22;9109;48.050;11.696;2023-07-29T08:51:45;19.60;99.90
17968;DHT22;9109;48.050;11.696;2023-07-29T08:54:47;19.60;99.90
17968;DHT22;9109;48.050;11.696;2023-07-29T08:57:50;19.60;99.90
17968;DHT22;9109;48.050;11.696;2023-07-29T09:00:54;19.70;99.90
17968;DHT22;9109;48.050;11.696;2023-07-29T09:04:06;19.70;99.90
17968;DHT22;9109;48.050;11.696;2023-07-29T09:07:10;19.70;99.90
17968;DHT22;9109;48.050;11.696;2023-07-29T09:13:15;19.90;99.90
17968;DHT22;9109;48.050;11.696;2023-07-29T09:16:17;20.00;99.90
17968;DHT22;9109;48.050;11.696;2023-07-29T09:19:20;20.10;99.90
17968;DHT22;9109;48.050;11.696;2023-07-29T09:22:29;20.20;99.90
17968;DHT22;9109;48.050;11.696;2023-07-29T09:25:39;20.30;99.90
17968;DHT22;9109;48.050;11.696;2023-07-29T09:28:43;20.50;99.90
17968;DHT22;9109;48.050;11.696;2023-07-29T09:31:45;20.60;99.90
17968;DHT22;9109;48.050;11.696;2023-07-29T09:34:49;20.70;99.90
17968;DHT22;9109;48.050;11.696;2023-07-29T09:37:51;20.90;99.90
17968;DHT22;9109;48.050;11.696;2023-07-29T09:40:57;21.00;99.90
17968;DHT22;9109;48.050;11.696;2023-07-29T09:44:01;21.30;99.90
17968;DHT22;9109;48.050;11.696;2023-07-29T09:47:05;21.50;99.90
17968;DHT22;9109;48.050;11.696;2023-07-29T09:50:09;21.60;99.90
17968;DHT22;9109;48.050;11.696;2023-07-29T09:53:11;21.80;99.90
17968;DHT22;9109;48.050;11.696;2023-07-29T09:56:16;22.00;99.90
17968;DHT22;9109;48.050;11.696;2023-07-29T09:59:19;22.20;99.90
17968;DHT22;9109;48.050;11.696;2023-07-29T10:02:21;22.50;99.90
17968;DHT22;9109;48.050;11.696;2023-07-29T10:05:30;22.50;99.90
17968;DHT22;9109;48.050;11.696;2023-07-29T10:08:35;22.50;99.90
17968;DHT22;9109;48.050;11.696;2023-07-29T10:11:39;22.40;99.90
17968;DHT22;9109;48.050;11.696;2023-07-29T10:14:43;22.40;99.90
17968;DHT22;9109;48.050;11.696;2023-07-29T10:17:46;22.60;99.90
17968;DHT22;9109;48.050;11.696;2023-07-29T10:20:50;23.00;99.90
17968;DHT22;9109;48.050;11.696;2023-07-29T10:23:58;23.10;99.90
17968;DHT22;9109;48.050;11.696;2023-07-29T10:27:01;23.30;99.90
17968;DHT22;9109;48.050;11.696;2023-07-29T10:30:04;23.30;99.90
17968;DHT22;9109;48.050;11.696;2023-07-29T10:33:07;23.40;99.90
17968;DHT22;9109;48.050;11.696;2023-07-29T10:36:12;23.60;99.90
17968;DHT22;9109;48.050;11.696;2023-07-29T10:39:15;23.60;99.90
17968;DHT22;9109;48.050;11.696;2023-07-29T10:42:17;23.70;99.90
17968;DHT22;9109;48.050;11.696;2023-07-29T10:45:20;23.80;99.90
17968;DHT22;9109;48.050;11.696;2023-07-29T10:48:41;24.00;99.90
17968;DHT22;9109;48.050;11.696;2023-07-29T10:54:49;24.10;99.90
17968;DHT22;9109;48.050;11.696;2023-07-29T10:57:51;24.20;99.90
17968;DHT22;9109;48.050;11.696;2023-07-29T11:00:54;24.40;99.90
17968;DHT22;9109;48.050;11.696;2023-07-29T11:04:24;24.60;99.90
17968;DHT22;9109;48.050;11.696;2023-07-29T11:07:27;24.70;99.90
17968;DHT22;9109;48.050;11.696;2023-07-29T11:10:42;24.80;99.90
17968;DHT22;9109;48.050;11.696;2023-07-29T11:13:45;24.70;99.90
17968;DHT22;9109;48.050;11.696;2023-07-29T11:16:47;24.80;99.90
17968;DHT22;9109;48.050;11.696;2023-07-29T11:19:50;24.80;99.90
17968;DHT22;9109;48.050;11.696;2023-07-29T11:22:53;24.90;99.90
17968;DHT22;9109;48.050;11.696;2023-07-29T11:25:58;25.00;99.90
17968;DHT22;9109;48.050;11.696;2023-07-29T11:29:01;25.00;99.90
17968;DHT22;9109;48.050;11.696;2023-07-29T11:32:07;25.20;99.90
17968;DHT22;9109;48.050;11.696;2023-07-29T11:35:11;25.50;99.90
17968;DHT22;9109;48.050;11.696;2023-07-29T11:38:15;25.70;99.90
17968;DHT22;9109;48.050;11.696;2023-07-29T11:41:20;25.80;99.90
17968;DHT22;9109;48.050;11.696;2023-07-29T11:44:24;25.80;99.40
17968;DHT22;9109;48.050;11.696;2023-07-29T11:47:30;25.80;99.40
17968;DHT22;9109;48.050;11.696;2023-07-29T11:50:36;25.70;99.00
17968;DHT22;9109;48.050;11.696;2023-07-29T11:53:38;25.30;96.00
17968;DHT22;9109;48.050;11.696;2023-07-29T11:56:41;25.10;96.90
17968;DHT22;9109;48.050;11.696;2023-07-29T11:59:45;25.00;96.50
17968;DHT22;9109;48.050;11.696;2023-07-29T12:02:49;24.90;95.30
17968;DHT22;9109;48.050;11.696;2023-07-29T12:05:53;24.70;95.20
17968;DHT22;9109;48.050;11.696;2023-07-29T12:08:55;24.60;95.70
17968;DHT22;9109;48.050;11.696;2023-07-29T12:12:01;24.60;95.70
17968;DHT22;9109;48.050;11.696;2023-07-29T12:15:04;24.40;94.50
17968;DHT22;9109;48.050;11.696;2023-07-29T12:18:06;24.40;97.60
17968;DHT22;9109;48.050;11.696;2023-07-29T12:21:08;24.60;96.40
17968;DHT22;9109;48.050;11.696;2023-07-29T12:24:12;24.70;96.40
17968;DHT22;9109;48.050;11.696;2023-07-29T12:27:15;24.80;95.30
17968;DHT22;9109;48.050;11.696;2023-07-29T12:30:21;25.00;96.60
17968;DHT22;9109;48.050;11.696;2023-07-29T12:33:32;25.20;96.80
17968;DHT22;9109;48.050;11.696;2023-07-29T12:36:42;25.40;94.60
17968;DHT22;9109;48.050;11.696;2023-07-29T12:39:44;25.50;93.50
17968;DHT22;9109;48.050;11.696;2023-07-29T12:42:49;25.40;92.50
17968;DHT22;9109;48.050;11.696;2023-07-29T12:45:51;25.40;93.80
17968;DHT22;9109;48.050;11.696;2023-07-29T12:48:53;25.50;94.90
17968;DHT22;9109;48.050;11.696;2023-07-29T12:51:55;25.70;92.80
17968;DHT22;9109;48.050;11.696;2023-07-29T12:54:57;25.70;91.30
17968;DHT22;9109;48.050;11.696;2023-07-29T12:58:01;26.00;91.20
17968;DHT22;9109;48.050;11.696;2023-07-29T13:01:03;26.10;93.70
17968;DHT22;9109;48.050;11.696;2023-07-29T13:04:05;26.30;92.50
17968;DHT22;9109;48.050;11.696;2023-07-29T13:07:06;26.50;92.20
17968;DHT22;9109;48.050;11.696;2023-07-29T13:10:09;26.10;91.60
17968;DHT22;9109;48.050;11.696;2023-07-29T13:13:13;26.10;91.40
17968;DHT22;9109;48.050;11.696;2023-07-29T13:16:18;25.70;92.10
17968;DHT22;9109;48.050;11.696;2023-07-29T13:19:20;25.30;92.30
17968;DHT22;9109;48.050;11.696;2023-07-29T13:22:25;24.60;94.20
17968;DHT22;9109;48.050;11.696;2023-07-29T13:25:29;23.90;95.40
17968;DHT22;9109;48.050;11.696;2023-07-29T13:28:33;23.30;98.30
17968;DHT22;9109;48.050;11.696;2023-07-29T13:31:43;23.00;99.90
17968;DHT22;9109;48.050;11.696;2023-07-29T13:34:48;22.90;99.90
17968;DHT22;9109;48.050;11.696;2023-07-29T13:37:49;23.30;99.90
17968;DHT22;9109;48.050;11.696;2023-07-29T13:40:51;23.90;99.90
17968;DHT22;9109;48.050;11.696;2023-07-29T13:43:57;24.10;99.90
17968;DHT22;9109;48.050;11.696;2023-07-29T13:46:59;24.20;99.90
17968;DHT22;9109;48.050;11.696;2023-07-29T13:50:01;23.90;99.90
17968;DHT22;9109;48.050;11.696;2023-07-29T13:53:03;23.70;99.90
17968;DHT22;9109;48.050;11.696;2023-07-29T13:56:05;23.80;99.90
17968;DHT22;9109;48.050;11.696;2023-07-29T13:59:08;23.60;99.90
17968;DHT22;9109;48.050;11.696;2023-07-29T14:02:10;23.50;99.90
17968;DHT22;9109;48.050;11.696;2023-07-29T14:05:12;23.40;99.90
17968;DHT22;9109;48.050;11.696;2023-07-29T14:08:14;23.30;99.90
17968;DHT22;9109;48.050;11.696;2023-07-29T14:11:16;23.20;99.90
17968;DHT22;9109;48.050;11.696;2023-07-29T14:14:20;23.20;99.90
17968;DHT22;9109;48.050;11.696;2023-07-29T14:17:22;23.30;99.90
17968;DHT22;9109;48.050;11.696;2023-07-29T14:20:24;23.20;99.90
17968;DHT22;9109;48.050;11.696;2023-07-29T14:23:26;23.20;99.90
17968;DHT22;9109;48.050;11.696;2023-07-29T14:26:28;23.20;99.90
17968;DHT22;9109;48.050;11.696;2023-07-29T14:29:31;23.30;99.90
17968;DHT22;9109;48.050;11.696;2023-07-29T14:32:33;23.10;99.90
17968;DHT22;9109;48.050;11.696;2023-07-29T14:35:35;23.10;99.90
17968;DHT22;9109;48.050;11.696;2023-07-29T14:38:37;23.00;99.90
17968;DHT22;9109;48.050;11.696;2023-07-29T14:41:39;22.80;99.90
17968;DHT22;9109;48.050;11.696;2023-07-29T14:44:42;22.70;99.90
17968;DHT22;9109;48.050;11.696;2023-07-29T14:47:47;22.70;99.90
17968;DHT22;9109;48.050;11.696;2023-07-29T14:50:49;22.60;99.90
17968;DHT22;9109;48.050;11.696;2023-07-29T14:53:50;22.50;99.90
17968;DHT22;9109;48.050;11.696;2023-07-29T14:56:52;22.50;99.90
17968;DHT22;9109;48.050;11.696;2023-07-29T14:59:56;22.40;99.90
17968;DHT22;9109;48.050;11.696;2023-07-29T15:02:58;22.20;99.90
17968;DHT22;9109;48.050;11.696;2023-07-29T15:06:02;22.00;99.90
17968;DHT22;9109;48.050;11.696;2023-07-29T15:09:04;21.90;99.90
17968;DHT22;9109;48.050;11.696;2023-07-29T15:12:08;22.00;99.90
17968;DHT22;9109;48.050;11.696;2023-07-29T15:15:12;22.00;99.90
17968;DHT22;9109;48.050;11.696;2023-07-29T15:18:14;22.00;99.90
17968;DHT22;9109;48.050;11.696;2023-07-29T15:21:16;22.00;99.90
17968;DHT22;9109;48.050;11.696;2023-07-29T15:24:18;22.00;99.90
17968;DHT22;9109;48.050;11.696;2023-07-29T15:27:22;22.10;99.90
17968;DHT22;9109;48.050;11.696;2023-07-29T15:30:25;22.10;99.90
17968;DHT22;9109;48.050;11.696;2023-07-29T15:33:27;22.10;99.90
17968;DHT22;9109;48.050;11.696;2023-07-29T15:36:29;22.20;99.90
17968;DHT22;9109;48.050;11.696;2023-07-29T15:39:31;22.20;99.90
17968;DHT22;9109;48.050;11.696;2023-07-29T15:42:33;22.20;99.90
17968;DHT22;9109;48.050;11.696;2023-07-29T15:45:37;22.30;99.90
17968;DHT22;9109;48.050;11.696;2023-07-29T15:48:39;22.40;99.90
17968;DHT22;9109;48.050;11.696;2023-07-29T15:51:41;22.30;99.90
17968;DHT22;9109;48.050;11.696;2023-07-29T15:54:43;22.30;99.90
17968;DHT22;9109;48.050;11.696;2023-07-29T15:57:45;22.40;99.90
17968;DHT22;9109;48.050;11.696;2023-07-29T16:00:48;22.40;99.90
17968;DHT22;9109;48.050;11.696;2023-07-29T16:03:50;22.30;99.90
17968;DHT22;9109;48.050;11.696;2023-07-29T16:06:52;22.30;99.90
17968;DHT22;9109;48.050;11.696;2023-07-29T16:09:54;22.30;99.90
17968;DHT22;9109;48.050;11.696;2023-07-29T16:12:56;22.40;99.90
17968;DHT22;9109;48.050;11.696;2023-07-29T16:15:59;22.40;99.90
17968;DHT22;9109;48.050;11.696;2023-07-29T16:19:01;22.30;99.90
17968;DHT22;9109;48.050;11.696;2023-07-29T16:22:03;22.30;99.90
17968;DHT22;9109;48.050;11.696;2023-07-29T16:25:05;22.30;99.90
17968;DHT22;9109;48.050;11.696;2023-07-29T16:28:07;22.30;99.90
17968;DHT22;9109;48.050;11.696;2023-07-29T16:31:11;22.20;99.90
17968;DHT22;9109;48.050;11.696;2023-07-29T16:34:13;22.30;99.90
17968;DHT22;9109;48.050;11.696;2023-07-29T16:37:14;22.30;99.90
17968;DHT22;9109;48.050;11.696;2023-07-29T16:40:16;22.30;99.90
17968;DHT22;9109;48.050;11.696;2023-07-29T16:43:18;22.30;99.90
17968;DHT22;9109;48.050;11.696;2023-07-29T16:46:22;22.30;99.90
17968;DHT22;9109;48.050;11.696;2023-07-29T16:49:24;22.30;99.90
17968;DHT22;9109;48.050;11.696;2023-07-29T16:52:25;22.20;99.90
17968;DHT22;9109;48.050;11.696;2023-07-29T16:55:27;22.20;99.90
17968;DHT22;9109;48.050;11.696;2023-07-29T16:58:29;22.20;99.90
17968;DHT22;9109;48.050;11.696;2023-07-29T17:01:33;22.20;99.90
17968;DHT22;9109;48.050;11.696;2023-07-29T17:04:35;22.00;99.90
17968;DHT22;9109;48.050;11.696;2023-07-29T17:07:37;21.90;99.90
17968;DHT22;9109;48.050;11.696;2023-07-29T17:10:39;21.90;99.90
17968;DHT22;9109;48.050;11.696;2023-07-29T17:13:41;21.80;99.90
17968;DHT22;9109;48.050;11.696;2023-07-29T17:16:44;21.90;99.90
17968;DHT22;9109;48.050;11.696;2023-07-29T17:19:46;21.80;99.90
17968;DHT22;9109;48.050;11.696;2023-07-29T17:22:49;21.80;99.90
17968;DHT22;9109;48.050;11.696;2023-07-29T17:25:51;21.80;99.90
17968;DHT22;9109;48.050;11.696;2023-07-29T17:28:53;21.70;99.90
17968;DHT22;9109;48.050;11.696;2023-07-29T17:31:56;21.70;99.90
17968;DHT22;9109;48.050;11.696;2023-07-29T17:34:58;21.70;99.90
17968;DHT22;9109;48.050;11.696;2023-07-29T17:38:00;21.60;99.90
17968;DHT22;9109;48.050;11.696;2023-07-29T17:41:02;21.60;99.90
17968;DHT22;9109;48.050;11.696;2023-07-29T17:44:04;21.60;99.90
17968;DHT22;9109;48.050;11.696;2023-07-29T17:47:07;21.60;99.90
17968;DHT22;9109;48.050;11.696;2023-07-29T17:50:09;21.50;99.90
17968;DHT22;9109;48.050;11.696;2023-07-29T17:53:11;21.50;99.90
17968;DHT22;9109;48.050;11.696;2023-07-29T17:56:13;21.40;99.90
17968;DHT22;9109;48.050;11.696;2023-07-29T17:59:15;21.20;99.90
17968;DHT22;9109;48.050;11.696;2023-07-29T18:02:19;21.10;99.90
17968;DHT22;9109;48.050;11.696;2023-07-29T18:05:20;21.00;99.90
17968;DHT22;9109;48.050;11.696;2023-07-29T18:08:23;21.00;99.90
17968;DHT22;9109;48.050;11.696;2023-07-29T18:11:24;21.10;99.90
17968;DHT22;9109;48.050;11.696;2023-07-29T18:14:26;21.10;99.90
17968;DHT22;9109;48.050;11.696;2023-07-29T18:17:30;21.10;99.90
17968;DHT22;9109;48.050;11.696;2023-07-29T18:20:32;21.10;99.90
17968;DHT22;9109;48.050;11.696;2023-07-29T18:23:36;21.10;99.90
17968;DHT22;9109;48.050;11.696;2023-07-29T18:26:38;21.10;99.90
17968;DHT22;9109;48.050;11.696;2023-07-29T18:29:39;21.10;99.90
17968;DHT22;9109;48.050;11.696;2023-07-29T18:32:43;21.00;99.90
17968;DHT22;9109;48.050;11.696;2023-07-29T18:35:45;21.00;99.90
17968;DHT22;9109;48.050;11.696;2023-07-29T18:38:47;20.90;99.90
17968;DHT22;9109;48.050;11.696;2023-07-29T18:41:49;20.80;99.90
17968;DHT22;9109;48.050;11.696;2023-07-29T18:44:51;20.80;99.90
17968;DHT22;9109;48.050;11.696;2023-07-29T18:47:54;20.80;99.90
17968;DHT22;9109;48.050;11.696;2023-07-29T18:50:56;20.80;99.90
17968;DHT22;9109;48.050;11.696;2023-07-29T18:53:58;20.80;99.90
17968;DHT22;9109;48.050;11.696;2023-07-29T18:57:00;20.70;99.90
17968;DHT22;9109;48.050;11.696;2023-07-29T19:00:03;20.70;99.90
17968;DHT22;9109;48.050;11.696;2023-07-29T19:03:07;20.70;99.90
17968;DHT22;9109;48.050;11.696;2023-07-29T19:06:09;20.70;99.90
17968;DHT22;9109;48.050;11.696;2023-07-29T19:09:11;20.80;99.90
17968;DHT22;9109;48.050;11.696;2023-07-29T19:12:13;20.80;99.90
17968;DHT22;9109;48.050;11.696;2023-07-29T19:15:15;20.70;99.90
17968;DHT22;9109;48.050;11.696;2023-07-29T19:18:18;20.70;99.90
17968;DHT22;9109;48.050;11.696;2023-07-29T19:21:20;20.80;99.90
17968;DHT22;9109;48.050;11.696;2023-07-29T19:24:22;20.80;99.90
17968;DHT22;9109;48.050;11.696;2023-07-29T19:27:24;20.80;99.90
17968;DHT22;9109;48.050;11.696;2023-07-29T19:30:26;20.70;99.90
17968;DHT22;9109;48.050;11.696;2023-07-29T19:33:30;20.60;99.90
17968;DHT22;9109;48.050;11.696;2023-07-29T19:36:31;20.60;99.90
17968;DHT22;9109;48.050;11.696;2023-07-29T19:39:35;20.50;99.90
17968;DHT22;9109;48.050;11.696;2023-07-29T19:42:40;20.50;99.90
17968;DHT22;9109;48.050;11.696;2023-07-29T19:45:46;20.60;99.90
17968;DHT22;9109;48.050;11.696;2023-07-29T19:48:50;20.50;99.90
17968;DHT22;9109;48.050;11.696;2023-07-29T19:51:59;20.50;99.90
17968;DHT22;9109;48.050;11.696;2023-07-29T19:55:04;20.50;99.90
17968;DHT22;9109;48.050;11.696;2023-07-29T19:58:10;20.50;99.90
17968;DHT22;9109;48.050;11.696;2023-07-29T20:01:11;20.50;99.90
17968;DHT22;9109;48.050;11.696;2023-07-29T20:04:16;20.50;99.90
17968;DHT22;9109;48.050;11.696;2023-07-29T20:07:18;20.40;99.90
17968;DHT22;9109;48.050;11.696;2023-07-29T20:10:20;20.40;99.90
17968;DHT22;9109;48.050;11.696;2023-07-29T20:13:22;20.40;99.90
17968;DHT22;9109;48.050;11.696;2023-07-29T20:16:27;20.40;99.90
17968;DHT22;9109;48.050;11.696;2023-07-29T20:19:30;20.40;99.90
17968;DHT22;9109;48.050;11.696;2023-07-29T20:22:32;20.40;99.90
17968;DHT22;9109;48.050;11.696;2023-07-29T20:25:34;20.40;99.90
17968;DHT22;9109;48.050;11.696;2023-07-29T20:28:36;20.40;99.90
17968;DHT22;9109;48.050;11.696;2023-07-29T20:31:38;20.40;99.90
17968;DHT22;9109;48.050;11.696;2023-07-29T20:34:41;20.40;99.90
17968;DHT22;9109;48.050;11.696;2023-07-29T20:37:43;20.40;99.90
17968;DHT22;9109;48.050;11.696;2023-07-29T20:40:49;20.40;99.90
17968;DHT22;9109;48.050;11.696;2023-07-29T20:43:51;20.30;99.90
17968;DHT22;9109;48.050;11.696;2023-07-29T20:46:53;20.40;99.90
17968;DHT22;9109;48.050;11.696;2023-07-29T20:49:56;20.40;99.90
17968;DHT22;9109;48.050;11.696;2023-07-29T20:52:58;20.30;99.90
17968;DHT22;9109;48.050;11.696;2023-07-29T20:56:00;20.30;99.90
17968;DHT22;9109;48.050;11.696;2023-07-29T20:59:02;20.30;99.90
17968;DHT22;9109;48.050;11.696;2023-07-29T21:09:37;20.20;99.90
17968;DHT22;9109;48.050;11.696;2023-07-29T21:13:24;20.20;99.90
17968;DHT22;9109;48.050;11.696;2023-07-29T21:25:04;20.10;99.90
17968;DHT22;9109;48.050;11.696;2023-07-29T21:28:57;20.20;99.90
17968;DHT22;9109;48.050;11.696;2023-07-29T21:33:09;20.20;99.90
17968;DHT22;9109;48.050;11.696;2023-07-29T21:40:38;20.20;99.90
17968;DHT22;9109;48.050;11.696;2023-07-29T21:43:53;20.10;99.90
17968;DHT22;9109;48.050;11.696;2023-07-29T21:47:50;20.10;99.90
17968;DHT22;9109;48.050;11.696;2023-07-29T21:51:22;20.10;99.90
17968;DHT22;9109;48.050;11.696;2023-07-29T22:02:37;20.20;99.90
17968;DHT22;9109;48.050;11.696;2023-07-29T22:18:18;20.10;99.90
17968;DHT22;9109;48.050;11.696;2023-07-29T22:22:50;20.10;99.90
